sensor_id;sensor_type;location;lat;lon;timestamp;pressure;altitude;pressure_sealevel;temperature;humidity
57412;BME280;43247;52.828;-8.980;2022-11-03T00:00:21;99841.09;;;23.34;58.28
57412;BME280;43247;52.828;-8.980;2022-11-03T00:02:52;99835.94;;;23.31;58.47
57412;BME280;43247;52.828;-8.980;2022-11-03T00:05:22;99838.40;;;23.39;57.99
57412;BME280;43247;52.828;-8.980;2022-11-03T00:07:53;99834.95;;;23.66;57.45
57412;BME280;43247;52.828;-8.980;2022-11-03T00:10:23;99826.47;;;23.33;58.43
57412;BME280;43247;52.828;-8.980;2022-11-03T00:12:54;99820.95;;;23.26;58.61
57412;BME280;43247;52.828;-8.980;2022-11-03T00:15:24;99821.65;;;23.63;57.76
57412;BME280;43247;52.828;-8.980;2022-11-03T00:17:55;99817.74;;;23.51;58.05
57412;BME280;43247;52.828;-8.980;2022-11-03T00:20:25;99817.43;;;23.45;58.17
57412;BME280;43247;52.828;-8.980;2022-11-03T00:22:56;99819.05;;;23.57;57.71
57412;BME280;43247;52.828;-8.980;2022-11-03T00:25:26;99818.75;;;23.47;57.66
57412;BME280;43247;52.828;-8.980;2022-11-03T00:27:56;99822.23;;;23.39;58.09
57412;BME280;43247;52.828;-8.980;2022-11-03T00:30:26;99824.33;;;23.74;57.28
57412;BME280;43247;52.828;-8.980;2022-11-03T00:32:57;99826.18;;;23.66;57.64
57412;BME280;43247;52.828;-8.980;2022-11-03T00:35:27;99814.67;;;23.28;58.94
57412;BME280;43247;52.828;-8.980;2022-11-03T00:37:57;99807.94;;;23.42;58.56
57412;BME280;43247;52.828;-8.980;2022-11-03T00:40:28;99802.14;;;23.39;58.20
57412;BME280;43247;52.828;-8.980;2022-11-03T00:42:58;99799.04;;;23.55;57.58
57412;BME280;43247;52.828;-8.980;2022-11-03T00:45:28;99796.08;;;23.82;56.65
57412;BME280;43247;52.828;-8.980;2022-11-03T00:47:58;99792.77;;;23.85;56.15
57412;BME280;43247;52.828;-8.980;2022-11-03T00:50:29;99788.53;;;23.91;55.52
57412;BME280;43247;52.828;-8.980;2022-11-03T00:52:59;99786.74;;;24.05;54.76
57412;BME280;43247;52.828;-8.980;2022-11-03T00:55:30;99786.18;;;23.81;55.10
57412;BME280;43247;52.828;-8.980;2022-11-03T00:58:00;99784.47;;;23.78;55.85
57412;BME280;43247;52.828;-8.980;2022-11-03T01:00:30;99788.13;;;23.42;57.09
57412;BME280;43247;52.828;-8.980;2022-11-03T01:03:01;99786.41;;;23.34;57.27
57412;BME280;43247;52.828;-8.980;2022-11-03T01:05:31;99782.29;;;23.92;55.31
57412;BME280;43247;52.828;-8.980;2022-11-03T01:08:02;99781.94;;;23.76;55.48
57412;BME280;43247;52.828;-8.980;2022-11-03T01:10:36;99777.64;;;24.13;54.06
57412;BME280;43247;52.828;-8.980;2022-11-03T01:13:03;99777.89;;;24.00;54.35
57412;BME280;43247;52.828;-8.980;2022-11-03T01:15:33;99778.89;;;23.88;54.16
57412;BME280;43247;52.828;-8.980;2022-11-03T01:18:03;99775.97;;;23.80;54.28
57412;BME280;43247;52.828;-8.980;2022-11-03T01:20:34;99775.83;;;23.57;55.70
57412;BME280;43247;52.828;-8.980;2022-11-03T01:23:04;99765.86;;;23.03;57.58
57412;BME280;43247;52.828;-8.980;2022-11-03T01:25:35;99764.60;;;23.25;57.06
57412;BME280;43247;52.828;-8.980;2022-11-03T01:28:05;99761.06;;;23.27;56.53
57412;BME280;43247;52.828;-8.980;2022-11-03T01:30:35;99756.68;;;23.27;56.22
57412;BME280;43247;52.828;-8.980;2022-11-03T01:33:06;99757.87;;;23.55;55.33
57412;BME280;43247;52.828;-8.980;2022-11-03T01:35:36;99746.17;;;23.90;54.07
57412;BME280;43247;52.828;-8.980;2022-11-03T01:38:07;99740.87;;;23.87;53.87
57412;BME280;43247;52.828;-8.980;2022-11-03T01:40:37;99736.10;;;23.70;54.10
57412;BME280;43247;52.828;-8.980;2022-11-03T01:43:13;99731.01;;;23.75;54.58
57412;BME280;43247;52.828;-8.980;2022-11-03T01:45:38;99727.59;;;23.15;56.52
57412;BME280;43247;52.828;-8.980;2022-11-03T01:48:09;99725.86;;;23.17;56.76
57412;BME280;43247;52.828;-8.980;2022-11-03T01:50:42;99738.14;;;23.53;55.56
57412;BME280;43247;52.828;-8.980;2022-11-03T01:53:10;99752.86;;;23.54;55.31
57412;BME280;43247;52.828;-8.980;2022-11-03T01:55:40;99756.11;;;23.42;55.33
57412;BME280;43247;52.828;-8.980;2022-11-03T01:58:15;99764.44;;;23.86;53.69
57412;BME280;43247;52.828;-8.980;2022-11-03T02:00:42;99767.72;;;23.94;53.32
57412;BME280;43247;52.828;-8.980;2022-11-03T02:03:11;99764.73;;;23.72;53.71
57412;BME280;43247;52.828;-8.980;2022-11-03T02:05:42;99757.89;;;23.73;54.24
57412;BME280;43247;52.828;-8.980;2022-11-03T02:08:15;99739.27;;;23.02;56.87
57412;BME280;43247;52.828;-8.980;2022-11-03T02:10:43;99729.98;;;23.24;56.38
57412;BME280;43247;52.828;-8.980;2022-11-03T02:13:17;99719.64;;;23.15;56.15
57412;BME280;43247;52.828;-8.980;2022-11-03T02:15:44;99714.77;;;23.38;55.46
57412;BME280;43247;52.828;-8.980;2022-11-03T02:18:15;99707.11;;;23.53;54.92
57412;BME280;43247;52.828;-8.980;2022-11-03T02:20:45;99704.33;;;23.85;53.85
57412;BME280;43247;52.828;-8.980;2022-11-03T02:23:25;99698.44;;;23.63;53.74
57412;BME280;43247;52.828;-8.980;2022-11-03T02:25:45;99694.74;;;23.55;54.75
57412;BME280;43247;52.828;-8.980;2022-11-03T02:28:17;99693.59;;;23.30;55.56
57412;BME280;43247;52.828;-8.980;2022-11-03T02:30:56;99685.28;;;23.68;55.22
57412;BME280;43247;52.828;-8.980;2022-11-03T02:33:27;99689.02;;;23.90;54.78
57412;BME280;43247;52.828;-8.980;2022-11-03T02:35:52;99688.43;;;23.60;55.48
57412;BME280;43247;52.828;-8.980;2022-11-03T02:38:19;99685.16;;;23.40;55.97
57412;BME280;43247;52.828;-8.980;2022-11-03T02:40:50;99686.97;;;23.72;55.27
57412;BME280;43247;52.828;-8.980;2022-11-03T02:43:18;99679.91;;;23.74;55.10
57412;BME280;43247;52.828;-8.980;2022-11-03T02:45:49;99677.62;;;23.82;55.00
57412;BME280;43247;52.828;-8.980;2022-11-03T02:48:18;99669.85;;;23.95;54.58
57412;BME280;43247;52.828;-8.980;2022-11-03T02:50:49;99670.92;;;23.89;54.62
57412;BME280;43247;52.828;-8.980;2022-11-03T02:53:19;99665.60;;;23.70;55.21
57412;BME280;43247;52.828;-8.980;2022-11-03T02:55:57;99663.67;;;23.83;55.01
57412;BME280;43247;52.828;-8.980;2022-11-03T02:58:24;99659.13;;;23.77;55.10
57412;BME280;43247;52.828;-8.980;2022-11-03T03:00:53;99656.50;;;23.61;55.38
57412;BME280;43247;52.828;-8.980;2022-11-03T03:03:25;99653.94;;;23.55;55.43
57412;BME280;43247;52.828;-8.980;2022-11-03T03:05:55;99650.49;;;23.74;54.94
57412;BME280;43247;52.828;-8.980;2022-11-03T03:08:22;99652.13;;;23.86;54.43
57412;BME280;43247;52.828;-8.980;2022-11-03T03:10:52;99649.01;;;23.91;53.71
57412;BME280;43247;52.828;-8.980;2022-11-03T03:13:23;99642.65;;;23.88;54.07
57412;BME280;43247;52.828;-8.980;2022-11-03T03:16:03;99639.31;;;23.84;54.51
57412;BME280;43247;52.828;-8.980;2022-11-03T03:18:26;99639.94;;;23.63;55.06
57412;BME280;43247;52.828;-8.980;2022-11-03T03:20:57;99640.60;;;23.52;55.18
57412;BME280;43247;52.828;-8.980;2022-11-03T03:23:26;99634.35;;;23.51;55.08
57412;BME280;43247;52.828;-8.980;2022-11-03T03:25:59;99626.90;;;23.90;53.60
57412;BME280;43247;52.828;-8.980;2022-11-03T03:28:28;99626.62;;;23.88;53.35
57412;BME280;43247;52.828;-8.980;2022-11-03T03:30:56;99626.32;;;23.73;53.64
57412;BME280;43247;52.828;-8.980;2022-11-03T03:33:27;99623.96;;;24.00;52.82
57412;BME280;43247;52.828;-8.980;2022-11-03T03:35:56;99627.16;;;23.85;54.01
57412;BME280;43247;52.828;-8.980;2022-11-03T03:38:29;99627.19;;;23.56;54.88
57412;BME280;43247;52.828;-8.980;2022-11-03T03:40:58;99615.89;;;23.62;54.76
57412;BME280;43247;52.828;-8.980;2022-11-03T03:43:28;99611.92;;;23.56;54.71
57412;BME280;43247;52.828;-8.980;2022-11-03T03:46:01;99612.80;;;23.73;54.16
57412;BME280;43247;52.828;-8.980;2022-11-03T03:48:28;99608.23;;;23.96;53.26
57412;BME280;43247;52.828;-8.980;2022-11-03T03:50:59;99607.03;;;23.76;53.55
57412;BME280;43247;52.828;-8.980;2022-11-03T03:53:29;99601.13;;;23.92;52.94
57412;BME280;43247;52.828;-8.980;2022-11-03T03:55:59;99598.34;;;23.94;52.47
57412;BME280;43247;52.828;-8.980;2022-11-03T03:58:30;99594.21;;;23.59;53.34
57412;BME280;43247;52.828;-8.980;2022-11-03T04:01:00;99594.42;;;23.75;53.98
57412;BME280;43247;52.828;-8.980;2022-11-03T04:03:30;99591.21;;;23.59;54.45
57412;BME280;43247;52.828;-8.980;2022-11-03T04:06:01;99597.40;;;23.58;54.37
57412;BME280;43247;52.828;-8.980;2022-11-03T04:08:31;99594.91;;;23.73;53.83
57412;BME280;43247;52.828;-8.980;2022-11-03T04:11:01;99598.16;;;23.67;53.22
57412;BME280;43247;52.828;-8.980;2022-11-03T04:13:32;99591.60;;;23.72;53.10
57412;BME280;43247;52.828;-8.980;2022-11-03T04:16:02;99595.36;;;23.77;53.24
57412;BME280;43247;52.828;-8.980;2022-11-03T04:18:33;99590.34;;;23.77;52.56
57412;BME280;43247;52.828;-8.980;2022-11-03T04:21:04;99589.10;;;23.82;52.51
57412;BME280;43247;52.828;-8.980;2022-11-03T04:23:33;99588.72;;;23.81;53.28
57412;BME280;43247;52.828;-8.980;2022-11-03T04:26:09;99583.43;;;23.47;54.24
57412;BME280;43247;52.828;-8.980;2022-11-03T04:28:34;99580.89;;;23.73;53.68
57412;BME280;43247;52.828;-8.980;2022-11-03T04:31:09;99575.48;;;23.60;54.07
57412;BME280;43247;52.828;-8.980;2022-11-03T04:33:35;99577.08;;;23.80;53.78
57412;BME280;43247;52.828;-8.980;2022-11-03T04:36:11;99582.10;;;23.65;54.25
57412;BME280;43247;52.828;-8.980;2022-11-03T04:38:36;99584.80;;;23.82;53.90
57412;BME280;43247;52.828;-8.980;2022-11-03T04:41:13;99582.02;;;23.93;53.70
57412;BME280;43247;52.828;-8.980;2022-11-03T04:43:37;99586.94;;;23.60;54.45
57412;BME280;43247;52.828;-8.980;2022-11-03T04:46:09;99587.23;;;23.92;53.72
57412;BME280;43247;52.828;-8.980;2022-11-03T04:48:37;99582.76;;;24.16;53.20
57412;BME280;43247;52.828;-8.980;2022-11-03T04:51:14;99580.16;;;24.17;53.19
57412;BME280;43247;52.828;-8.980;2022-11-03T04:53:45;99580.45;;;24.15;53.21
57412;BME280;43247;52.828;-8.980;2022-11-03T04:56:13;99577.55;;;24.08;53.31
57412;BME280;43247;52.828;-8.980;2022-11-03T04:58:39;99577.96;;;24.04;53.42
57412;BME280;43247;52.828;-8.980;2022-11-03T05:01:12;99575.60;;;24.02;53.40
57412;BME280;43247;52.828;-8.980;2022-11-03T05:03:41;99573.62;;;24.00;53.45
57412;BME280;43247;52.828;-8.980;2022-11-03T05:06:13;99568.65;;;23.90;53.59
57412;BME280;43247;52.828;-8.980;2022-11-03T05:08:41;99570.93;;;23.76;54.02
57412;BME280;43247;52.828;-8.980;2022-11-03T05:11:16;99574.85;;;23.94;53.62
57412;BME280;43247;52.828;-8.980;2022-11-03T05:13:41;99575.87;;;24.06;53.30
57412;BME280;43247;52.828;-8.980;2022-11-03T05:16:11;99573.09;;;24.07;53.14
57412;BME280;43247;52.828;-8.980;2022-11-03T05:18:43;99580.68;;;24.03;52.95
57412;BME280;43247;52.828;-8.980;2022-11-03T05:21:15;99587.43;;;23.70;53.45
57412;BME280;43247;52.828;-8.980;2022-11-03T05:23:45;99585.54;;;23.88;52.61
57412;BME280;43247;52.828;-8.980;2022-11-03T05:26:17;99583.12;;;23.83;52.44
57412;BME280;43247;52.828;-8.980;2022-11-03T05:28:47;99584.16;;;23.86;52.43
57412;BME280;43247;52.828;-8.980;2022-11-03T05:31:20;99581.17;;;23.80;52.43
57412;BME280;43247;52.828;-8.980;2022-11-03T05:33:44;99571.53;;;24.06;52.47
57412;BME280;43247;52.828;-8.980;2022-11-03T05:36:19;99572.39;;;24.15;52.25
57412;BME280;43247;52.828;-8.980;2022-11-03T05:38:44;99573.07;;;23.95;52.49
57412;BME280;43247;52.828;-8.980;2022-11-03T05:41:20;99572.02;;;23.86;52.85
57412;BME280;43247;52.828;-8.980;2022-11-03T05:43:49;99568.16;;;23.70;52.89
57412;BME280;43247;52.828;-8.980;2022-11-03T05:46:16;99563.15;;;23.73;52.72
57412;BME280;43247;52.828;-8.980;2022-11-03T05:48:47;99557.65;;;23.96;51.62
57412;BME280;43247;52.828;-8.980;2022-11-03T05:51:20;99556.10;;;24.02;51.45
57412;BME280;43247;52.828;-8.980;2022-11-03T05:53:50;99549.21;;;24.05;51.29
57412;BME280;43247;52.828;-8.980;2022-11-03T05:56:20;99543.12;;;23.83;52.56
57412;BME280;43247;52.828;-8.980;2022-11-03T05:58:49;99539.12;;;23.69;53.01
57412;BME280;43247;52.828;-8.980;2022-11-03T06:01:22;99538.10;;;23.75;52.72
57412;BME280;43247;52.828;-8.980;2022-11-03T06:03:49;99537.13;;;23.55;53.05
57412;BME280;43247;52.828;-8.980;2022-11-03T06:06:22;99535.51;;;23.59;52.93
57412;BME280;43247;52.828;-8.980;2022-11-03T06:08:49;99538.01;;;24.00;51.35
57412;BME280;43247;52.828;-8.980;2022-11-03T06:11:25;99523.85;;;24.05;50.97
57412;BME280;43247;52.828;-8.980;2022-11-03T06:13:50;99517.44;;;23.72;51.56
57412;BME280;43247;52.828;-8.980;2022-11-03T06:16:30;99518.82;;;23.80;52.15
57412;BME280;43247;52.828;-8.980;2022-11-03T06:18:51;99516.46;;;23.87;53.17
57412;BME280;43247;52.828;-8.980;2022-11-03T06:21:23;99510.75;;;23.93;53.31
57412;BME280;43247;52.828;-8.980;2022-11-03T06:23:52;99497.44;;;24.07;52.96
57412;BME280;43247;52.828;-8.980;2022-11-03T06:26:24;99494.78;;;24.11;52.93
57412;BME280;43247;52.828;-8.980;2022-11-03T06:28:53;99497.00;;;24.18;52.80
57412;BME280;43247;52.828;-8.980;2022-11-03T06:31:26;99489.30;;;24.26;52.59
57412;BME280;43247;52.828;-8.980;2022-11-03T06:33:54;99482.06;;;24.25;52.59
57412;BME280;43247;52.828;-8.980;2022-11-03T06:36:26;99475.74;;;24.30;52.54
57412;BME280;43247;52.828;-8.980;2022-11-03T06:38:59;99479.95;;;24.31;52.61
57412;BME280;43247;52.828;-8.980;2022-11-03T06:41:26;99474.78;;;24.39;52.44
57412;BME280;43247;52.828;-8.980;2022-11-03T06:43:55;99468.19;;;24.33;52.50
57412;BME280;43247;52.828;-8.980;2022-11-03T06:46:26;99464.63;;;24.45;52.24
57412;BME280;43247;52.828;-8.980;2022-11-03T06:48:58;99464.85;;;24.51;52.03
57412;BME280;43247;52.828;-8.980;2022-11-03T06:51:28;99466.46;;;24.44;51.92
57412;BME280;43247;52.828;-8.980;2022-11-03T06:53:58;99460.23;;;24.45;52.20
57412;BME280;43247;52.828;-8.980;2022-11-03T06:56:30;99455.95;;;24.26;52.12
57412;BME280;43247;52.828;-8.980;2022-11-03T06:58:57;99452.04;;;24.37;51.73
57412;BME280;43247;52.828;-8.980;2022-11-03T07:01:30;99453.85;;;24.20;52.70
57412;BME280;43247;52.828;-8.980;2022-11-03T07:04:00;99455.21;;;24.12;52.59
57412;BME280;43247;52.828;-8.980;2022-11-03T07:06:31;99447.83;;;24.24;51.91
57412;BME280;43247;52.828;-8.980;2022-11-03T07:09:01;99445.67;;;24.20;52.26
57412;BME280;43247;52.828;-8.980;2022-11-03T07:11:33;99436.63;;;24.03;52.81
57412;BME280;43247;52.828;-8.980;2022-11-03T07:14:09;99430.12;;;23.91;52.67
57412;BME280;43247;52.828;-8.980;2022-11-03T07:16:33;99435.14;;;23.88;52.39
57412;BME280;43247;52.828;-8.980;2022-11-03T07:19:03;99433.37;;;23.95;53.10
57412;BME280;43247;52.828;-8.980;2022-11-03T07:21:36;99431.92;;;23.86;53.27
57412;BME280;43247;52.828;-8.980;2022-11-03T07:24:09;99427.67;;;23.87;53.25
57412;BME280;43247;52.828;-8.980;2022-11-03T07:26:33;99432.52;;;23.73;53.30
57412;BME280;43247;52.828;-8.980;2022-11-03T07:29:02;99430.49;;;23.66;53.44
57412;BME280;43247;52.828;-8.980;2022-11-03T07:31:32;99421.88;;;23.78;53.07
57412;BME280;43247;52.828;-8.980;2022-11-03T07:34:08;99412.91;;;23.64;53.14
57412;BME280;43247;52.828;-8.980;2022-11-03T07:36:33;99404.87;;;23.72;52.55
57412;BME280;43247;52.828;-8.980;2022-11-03T07:39:07;99398.10;;;23.67;52.76
57412;BME280;43247;52.828;-8.980;2022-11-03T07:41:33;99397.42;;;23.71;52.85
57412;BME280;43247;52.828;-8.980;2022-11-03T07:44:07;99393.77;;;23.67;53.12
57412;BME280;43247;52.828;-8.980;2022-11-03T07:46:35;99392.41;;;23.64;53.21
57412;BME280;43247;52.828;-8.980;2022-11-03T07:49:14;99402.48;;;23.66;52.83
57412;BME280;43247;52.828;-8.980;2022-11-03T07:51:38;99400.39;;;23.68;52.68
57412;BME280;43247;52.828;-8.980;2022-11-03T07:54:12;99401.05;;;23.54;52.91
57412;BME280;43247;52.828;-8.980;2022-11-03T07:56:40;99395.69;;;23.64;52.70
57412;BME280;43247;52.828;-8.980;2022-11-03T07:59:14;99401.44;;;23.68;52.59
57412;BME280;43247;52.828;-8.980;2022-11-03T08:01:40;99401.64;;;23.71;51.93
57412;BME280;43247;52.828;-8.980;2022-11-03T08:04:09;99402.64;;;23.91;51.33
57412;BME280;43247;52.828;-8.980;2022-11-03T08:06:38;99404.94;;;23.77;52.13
57412;BME280;43247;52.828;-8.980;2022-11-03T08:09:08;99413.89;;;23.72;52.54
57412;BME280;43247;52.828;-8.980;2022-11-03T08:11:38;99417.03;;;23.62;52.71
57412;BME280;43247;52.828;-8.980;2022-11-03T08:14:09;99411.05;;;23.58;52.68
57412;BME280;43247;52.828;-8.980;2022-11-03T08:16:39;99404.41;;;23.57;52.89
57412;BME280;43247;52.828;-8.980;2022-11-03T08:19:10;99391.37;;;23.66;52.80
57412;BME280;43247;52.828;-8.980;2022-11-03T08:21:40;99381.21;;;23.52;53.09
57412;BME280;43247;52.828;-8.980;2022-11-03T08:24:10;99372.95;;;23.73;52.73
57412;BME280;43247;52.828;-8.980;2022-11-03T08:26:41;99375.35;;;23.84;52.52
57412;BME280;43247;52.828;-8.980;2022-11-03T08:29:11;99372.52;;;23.93;52.31
57412;BME280;43247;52.828;-8.980;2022-11-03T08:31:42;99372.36;;;24.13;51.83
57412;BME280;43247;52.828;-8.980;2022-11-03T08:34:12;99373.91;;;24.18;51.75
57412;BME280;43247;52.828;-8.980;2022-11-03T08:36:42;99380.09;;;24.25;51.61
57412;BME280;43247;52.828;-8.980;2022-11-03T08:39:13;99379.20;;;24.11;51.89
57412;BME280;43247;52.828;-8.980;2022-11-03T08:41:43;99386.02;;;24.08;51.97
57412;BME280;43247;52.828;-8.980;2022-11-03T08:44:14;99380.91;;;24.07;51.94
57412;BME280;43247;52.828;-8.980;2022-11-03T08:46:44;99378.40;;;23.94;52.18
57412;BME280;43247;52.828;-8.980;2022-11-03T08:49:14;99372.17;;;24.08;51.78
57412;BME280;43247;52.828;-8.980;2022-11-03T08:51:45;99370.15;;;23.89;52.27
57412;BME280;43247;52.828;-8.980;2022-11-03T08:54:15;99368.68;;;23.83;52.41
57412;BME280;43247;52.828;-8.980;2022-11-03T08:56:46;99365.68;;;23.85;52.28
57412;BME280;43247;52.828;-8.980;2022-11-03T08:59:16;99360.95;;;23.95;52.03
57412;BME280;43247;52.828;-8.980;2022-11-03T09:01:46;99360.37;;;23.79;52.30
57412;BME280;43247;52.828;-8.980;2022-11-03T09:04:17;99357.97;;;23.90;52.05
57412;BME280;43247;52.828;-8.980;2022-11-03T09:06:47;99357.01;;;23.99;51.77
57412;BME280;43247;52.828;-8.980;2022-11-03T09:09:18;99354.16;;;23.79;52.22
57412;BME280;43247;52.828;-8.980;2022-11-03T09:11:48;99349.82;;;23.65;52.51
57412;BME280;43247;52.828;-8.980;2022-11-03T09:14:18;99354.08;;;23.86;51.75
57412;BME280;43247;52.828;-8.980;2022-11-03T09:16:49;99351.32;;;23.88;51.98
57412;BME280;43247;52.828;-8.980;2022-11-03T09:19:19;99348.29;;;23.74;52.38
57412;BME280;43247;52.828;-8.980;2022-11-03T09:21:49;99344.06;;;23.84;52.19
57412;BME280;43247;52.828;-8.980;2022-11-03T09:24:20;99335.87;;;23.72;52.14
57412;BME280;43247;52.828;-8.980;2022-11-03T09:26:50;99335.68;;;23.77;52.23
57412;BME280;43247;52.828;-8.980;2022-11-03T09:29:21;99331.08;;;23.80;52.01
57412;BME280;43247;52.828;-8.980;2022-11-03T09:31:51;99325.55;;;23.79;51.99
57412;BME280;43247;52.828;-8.980;2022-11-03T09:34:21;99322.46;;;23.71;51.94
57412;BME280;43247;52.828;-8.980;2022-11-03T09:36:52;99325.33;;;23.66;52.10
57412;BME280;43247;52.828;-8.980;2022-11-03T09:39:22;99324.52;;;23.95;51.33
57412;BME280;43247;52.828;-8.980;2022-11-03T09:41:55;99323.68;;;24.24;50.69
57412;BME280;43247;52.828;-8.980;2022-11-03T09:44:23;99324.94;;;24.31;50.60
57412;BME280;43247;52.828;-8.980;2022-11-03T09:46:54;99323.74;;;24.15;51.09
57412;BME280;43247;52.828;-8.980;2022-11-03T09:49:24;99325.64;;;23.98;51.40
57412;BME280;43247;52.828;-8.980;2022-11-03T09:51:54;99332.43;;;24.01;51.27
57412;BME280;43247;52.828;-8.980;2022-11-03T09:54:26;99337.27;;;23.91;51.56
57412;BME280;43247;52.828;-8.980;2022-11-03T09:56:56;99336.15;;;23.96;51.45
57412;BME280;43247;52.828;-8.980;2022-11-03T09:59:25;99337.48;;;24.02;51.36
57412;BME280;43247;52.828;-8.980;2022-11-03T10:01:55;99339.78;;;24.09;51.25
57412;BME280;43247;52.828;-8.980;2022-11-03T10:04:27;99342.24;;;24.50;50.53
57412;BME280;43247;52.828;-8.980;2022-11-03T10:06:57;99341.75;;;24.56;50.46
57412;BME280;43247;52.828;-8.980;2022-11-03T10:09:28;99340.79;;;24.54;50.44
57412;BME280;43247;52.828;-8.980;2022-11-03T10:11:57;99340.99;;;24.42;50.81
57412;BME280;43247;52.828;-8.980;2022-11-03T10:14:28;99343.68;;;24.71;50.24
57412;BME280;43247;52.828;-8.980;2022-11-03T10:16:58;99342.57;;;24.58;50.26
57412;BME280;43247;52.828;-8.980;2022-11-03T10:19:27;99338.43;;;24.46;50.37
57412;BME280;43247;52.828;-8.980;2022-11-03T10:21:58;99338.78;;;24.39;50.55
57412;BME280;43247;52.828;-8.980;2022-11-03T10:24:28;99337.88;;;24.43;50.63
57412;BME280;43247;52.828;-8.980;2022-11-03T10:26:59;99338.17;;;24.84;49.93
57412;BME280;43247;52.828;-8.980;2022-11-03T10:29:29;99335.93;;;24.92;49.85
57412;BME280;43247;52.828;-8.980;2022-11-03T10:31:59;99333.41;;;24.86;50.07
57412;BME280;43247;52.828;-8.980;2022-11-03T10:34:33;99335.08;;;24.79;50.19
57412;BME280;43247;52.828;-8.980;2022-11-03T10:37:09;99336.59;;;24.75;50.25
57412;BME280;43247;52.828;-8.980;2022-11-03T10:39:31;99335.44;;;24.62;50.69
57412;BME280;43247;52.828;-8.980;2022-11-03T10:42:01;99338.41;;;24.56;50.74
57412;BME280;43247;52.828;-8.980;2022-11-03T10:44:31;99341.21;;;24.49;51.09
57412;BME280;43247;52.828;-8.980;2022-11-03T10:47:03;99346.24;;;24.99;50.39
57412;BME280;43247;52.828;-8.980;2022-11-03T10:49:33;99351.14;;;24.94;50.41
57412;BME280;43247;52.828;-8.980;2022-11-03T10:52:14;99356.94;;;25.13;50.15
57412;BME280;43247;52.828;-8.980;2022-11-03T10:54:34;99356.30;;;25.11;50.21
57412;BME280;43247;52.828;-8.980;2022-11-03T10:57:03;99357.82;;;24.90;50.64
57412;BME280;43247;52.828;-8.980;2022-11-03T10:59:36;99358.41;;;24.83;50.85
57412;BME280;43247;52.828;-8.980;2022-11-03T11:02:14;99361.45;;;24.94;50.62
57412;BME280;43247;52.828;-8.980;2022-11-03T11:04:34;99359.54;;;24.89;50.87
57412;BME280;43247;52.828;-8.980;2022-11-03T11:07:13;99357.15;;;25.02;50.64
57412;BME280;43247;52.828;-8.980;2022-11-03T11:09:35;99358.22;;;25.19;50.45
57412;BME280;43247;52.828;-8.980;2022-11-03T11:12:13;99358.77;;;25.14;50.65
57412;BME280;43247;52.828;-8.980;2022-11-03T11:14:37;99356.50;;;25.06;50.82
57412;BME280;43247;52.828;-8.980;2022-11-03T11:22:12;99353.01;;;25.02;51.11
57412;BME280;43247;52.828;-8.980;2022-11-03T11:29:37;99341.57;;;25.24;50.96
57412;BME280;43247;52.828;-8.980;2022-11-03T11:34:38;99347.42;;;25.43;50.68
57412;BME280;43247;52.828;-8.980;2022-11-03T11:39:43;99339.88;;;25.36;50.83
57412;BME280;43247;52.828;-8.980;2022-11-03T11:42:11;99337.78;;;25.11;51.49
57412;BME280;43247;52.828;-8.980;2022-11-03T11:44:47;99335.65;;;25.20;51.28
57412;BME280;43247;52.828;-8.980;2022-11-03T11:49:41;99332.73;;;25.55;50.93
57412;BME280;43247;52.828;-8.980;2022-11-03T11:52:11;99335.92;;;25.64;50.73
57412;BME280;43247;52.828;-8.980;2022-11-03T11:54:42;99337.91;;;24.81;51.53
57412;BME280;43247;52.828;-8.980;2022-11-03T11:57:19;99340.78;;;24.51;51.78
57412;BME280;43247;52.828;-8.980;2022-11-03T11:59:44;99344.72;;;24.37;52.11
57412;BME280;43247;52.828;-8.980;2022-11-03T12:02:18;99348.94;;;25.12;50.52
57412;BME280;43247;52.828;-8.980;2022-11-03T12:04:45;99346.68;;;25.32;50.21
57412;BME280;43247;52.828;-8.980;2022-11-03T12:07:13;99341.49;;;25.58;49.97
57412;BME280;43247;52.828;-8.980;2022-11-03T12:09:44;99344.49;;;25.90;49.51
57412;BME280;43247;52.828;-8.980;2022-11-03T12:14:44;99340.59;;;26.11;49.55
57412;BME280;43247;52.828;-8.980;2022-11-03T12:19:46;99342.55;;;26.13;50.21
57412;BME280;43247;52.828;-8.980;2022-11-03T12:24:48;99342.68;;;26.25;50.09
57412;BME280;43247;52.828;-8.980;2022-11-03T12:29:47;99348.71;;;26.23;50.30
57412;BME280;43247;52.828;-8.980;2022-11-03T12:32:18;99346.26;;;25.97;50.85
57412;BME280;43247;52.828;-8.980;2022-11-03T12:34:48;99343.95;;;26.01;50.65
57412;BME280;43247;52.828;-8.980;2022-11-03T12:37:18;99336.61;;;25.78;51.19
57412;BME280;43247;52.828;-8.980;2022-11-03T12:39:49;99340.43;;;25.94;50.99
57412;BME280;43247;52.828;-8.980;2022-11-03T12:42:19;99340.31;;;26.10;50.73
57412;BME280;43247;52.828;-8.980;2022-11-03T12:44:50;99338.01;;;25.92;50.08
57412;BME280;43247;52.828;-8.980;2022-11-03T12:47:20;99336.05;;;25.80;49.96
57412;BME280;43247;52.828;-8.980;2022-11-03T12:49:50;99330.69;;;25.59;50.38
57412;BME280;43247;52.828;-8.980;2022-11-03T12:52:21;99333.00;;;25.55;50.41
57412;BME280;43247;52.828;-8.980;2022-11-03T12:54:51;99342.73;;;25.38;50.58
57412;BME280;43247;52.828;-8.980;2022-11-03T12:57:21;99344.85;;;25.31;50.56
57412;BME280;43247;52.828;-8.980;2022-11-03T12:59:52;99344.18;;;25.14;50.85
57412;BME280;43247;52.828;-8.980;2022-11-03T13:02:22;99345.04;;;25.16;50.76
57412;BME280;43247;52.828;-8.980;2022-11-03T13:04:53;99345.29;;;24.91;51.27
57412;BME280;43247;52.828;-8.980;2022-11-03T13:07:23;99348.58;;;25.16;50.77
57412;BME280;43247;52.828;-8.980;2022-11-03T13:09:54;99353.53;;;25.16;50.40
57412;BME280;43247;52.828;-8.980;2022-11-03T13:12:24;99354.15;;;24.93;51.32
57412;BME280;43247;52.828;-8.980;2022-11-03T13:14:54;99353.97;;;24.83;51.55
57412;BME280;43247;52.828;-8.980;2022-11-03T13:17:25;99355.44;;;24.83;51.59
57412;BME280;43247;52.828;-8.980;2022-11-03T13:19:55;99353.96;;;24.88;51.55
57412;BME280;43247;52.828;-8.980;2022-11-03T13:22:25;99352.47;;;24.99;51.23
57412;BME280;43247;52.828;-8.980;2022-11-03T13:24:55;99351.63;;;25.00;51.15
57412;BME280;43247;52.828;-8.980;2022-11-03T13:27:26;99352.31;;;24.88;51.43
57412;BME280;43247;52.828;-8.980;2022-11-03T13:29:56;99354.15;;;24.96;50.96
57412;BME280;43247;52.828;-8.980;2022-11-03T13:32:27;99350.83;;;24.43;51.95